createdAt,value
2022-09-14T00:00:10.487Z,100924.38
2022-09-14T00:03:13.110Z,100933.19
2022-09-14T00:06:16.385Z,100905.03
2022-09-14T00:09:20.099Z,100891.31
2022-09-14T00:12:24.993Z,100921.56
2022-09-14T00:15:27.914Z,100871.06
2022-09-14T00:18:30.469Z,100921.09
2022-09-14T00:21:33.096Z,100834.75
2022-09-14T00:24:35.876Z,100923.00
2022-09-14T00:27:39.793Z,100880.91
2022-09-14T00:30:42.642Z,100910.09
2022-09-14T00:33:47.224Z,100894.34
2022-09-14T00:36:50.539Z,100828.13
2022-09-14T00:39:53.204Z,100911.22
2022-09-14T00:42:57.179Z,100905.13
2022-09-14T00:46:01.328Z,100907.50
2022-09-14T00:49:05.228Z,100895.88
2022-09-14T00:52:09.544Z,100863.69
2022-09-14T00:55:13.057Z,100891.09
2022-09-14T00:58:17.027Z,100801.66
2022-09-14T01:01:19.750Z,100854.94
2022-09-14T01:04:22.381Z,100862.25
2022-09-14T01:07:35.350Z,100862.66
2022-09-14T01:10:48.222Z,100836.00
2022-09-14T01:13:55.752Z,100818.28
2022-09-14T01:17:02.404Z,100824.31
2022-09-14T01:20:16.835Z,100860.56
2022-09-14T01:23:22.511Z,100854.16
2022-09-14T01:26:48.275Z,100835.25
2022-09-14T01:29:53.295Z,100808.59
2022-09-14T01:33:03.000Z,100842.03
2022-09-14T01:36:06.568Z,100825.22
2022-09-14T01:39:09.414Z,100807.47
2022-09-14T01:42:12.891Z,100826.00
2022-09-14T01:45:18.944Z,100829.63
2022-09-14T01:48:23.089Z,100778.09
2022-09-14T01:51:27.509Z,100763.94
2022-09-14T01:54:32.141Z,100785.69
2022-09-14T01:57:37.194Z,100819.59
2022-09-14T02:00:43.701Z,100826.00
2022-09-14T02:03:48.889Z,100772.03
2022-09-14T02:06:51.652Z,100813.97
2022-09-14T02:09:54.436Z,100817.97
2022-09-14T02:12:57.075Z,100767.25
2022-09-14T02:16:01.090Z,100807.47
2022-09-14T02:19:03.701Z,100808.22
2022-09-14T02:22:06.275Z,100809.84
2022-09-14T02:25:10.180Z,100806.69
2022-09-14T02:28:12.753Z,100719.69
2022-09-14T02:31:18.812Z,100807.53
2022-09-14T02:34:25.549Z,100788.28
2022-09-14T02:37:31.684Z,100787.09
2022-09-14T02:40:35.934Z,100748.03
2022-09-14T02:43:42.770Z,100780.28
2022-09-14T02:46:48.841Z,100761.75
2022-09-14T02:49:54.626Z,100771.44
2022-09-14T02:53:00.709Z,100772.22
2022-09-14T02:56:09.667Z,100720.66
2022-09-14T02:59:12.213Z,100718.59
2022-09-14T03:02:16.210Z,100768.16
2022-09-14T03:05:18.859Z,100762.94
2022-09-14T03:08:21.454Z,100729.56
2022-09-14T03:11:24.069Z,100705.03
2022-09-14T03:14:26.628Z,100755.38
2022-09-14T03:17:30.493Z,100716.69
2022-09-14T03:20:33.281Z,100701.41
2022-09-14T03:23:38.724Z,100690.94
2022-09-14T03:26:41.520Z,100739.25
2022-09-14T03:29:44.054Z,100731.16
2022-09-14T03:32:48.074Z,100696.91
2022-09-14T03:35:50.680Z,100719.09
2022-09-14T03:38:54.675Z,100715.47
2022-09-14T03:41:57.223Z,100723.16
2022-09-14T03:44:59.793Z,100721.53
2022-09-14T03:48:05.221Z,100716.31
2022-09-14T03:51:08.443Z,100708.69
2022-09-14T03:54:11.037Z,100682.88
2022-09-14T03:57:13.588Z,100723.97
2022-09-14T04:00:16.475Z,100669.97
2022-09-14T04:03:21.032Z,100726.78
2022-09-14T04:06:24.265Z,100690.56
2022-09-14T04:09:27.024Z,100739.25
2022-09-14T04:12:29.602Z,100735.25
2022-09-14T04:15:32.167Z,100667.56
2022-09-14T04:18:36.052Z,100736.91
2022-09-14T04:21:38.566Z,100738.53
2022-09-14T04:24:41.113Z,100732.53
2022-09-14T04:27:48.385Z,100740.19
2022-09-14T04:30:58.445Z,100704.75
2022-09-14T04:34:02.708Z,100726.94
2022-09-14T04:37:05.323Z,100724.13
2022-09-14T04:40:09.119Z,100730.56
2022-09-14T04:43:11.766Z,100666.97
2022-09-14T04:46:15.515Z,100721.78
2022-09-14T04:49:21.465Z,100722.59
2022-09-14T04:52:24.723Z,100714.63
2022-09-14T04:55:27.756Z,100682.34
2022-09-14T04:58:30.432Z,100671.06
2022-09-14T05:01:34.132Z,100716.16
2022-09-14T05:04:38.124Z,100708.13
2022-09-14T05:07:40.696Z,100700.09
2022-09-14T05:10:43.355Z,100706.50
2022-09-14T05:13:49.724Z,100677.50
2022-09-14T05:16:52.753Z,100712.06
2022-09-14T05:19:56.658Z,100716.88
2022-09-14T05:22:59.249Z,100643.28
2022-09-14T05:26:01.921Z,100642.06
2022-09-14T05:29:04.741Z,100706.03
2022-09-14T05:32:07.393Z,100707.22
2022-09-14T05:35:11.467Z,100688.34
2022-09-14T05:38:14.099Z,100656.50
2022-09-14T05:41:16.883Z,100697.53
2022-09-14T05:44:19.420Z,100714.34
2022-09-14T05:47:22.005Z,100677.66
2022-09-14T05:50:26.028Z,100719.09
2022-09-14T05:53:28.672Z,100656.34
2022-09-14T05:56:31.580Z,100689.84
2022-09-14T05:59:34.203Z,100699.88
2022-09-14T06:02:36.736Z,100714.31
2022-09-14T06:05:40.703Z,100711.94
2022-09-14T06:08:43.301Z,100703.50
2022-09-14T06:11:45.817Z,100700.66
2022-09-14T06:14:48.354Z,100703.06
2022-09-14T06:17:50.946Z,100698.22
2022-09-14T06:20:54.821Z,100701.47
2022-09-14T06:23:57.492Z,100620.88
2022-09-14T06:27:00.014Z,100657.97
2022-09-14T06:30:02.536Z,100634.69
2022-09-14T06:33:05.705Z,100699.50
2022-09-14T06:36:12.502Z,100691.09
2022-09-14T06:39:15.266Z,100701.94
2022-09-14T06:42:17.788Z,100690.72
2022-09-14T06:45:20.365Z,100679.88
2022-09-14T06:48:22.887Z,100675.00
2022-09-14T06:51:27.853Z,100678.16
2022-09-14T06:54:30.456Z,100692.66
2022-09-14T06:57:33.001Z,100678.16
2022-09-14T07:00:36.353Z,100688.22
2022-09-14T07:03:39.391Z,100650.03
2022-09-14T07:06:44.140Z,100688.66
2022-09-14T07:09:46.609Z,100689.44
2022-09-14T07:12:49.502Z,100617.81
2022-09-14T07:15:52.119Z,100613.34
2022-09-14T07:18:54.681Z,100644.41
2022-09-14T07:21:58.604Z,100682.66
2022-09-14T07:25:01.148Z,100652.47
2022-09-14T07:28:03.724Z,100686.34
2022-09-14T07:31:06.837Z,100699.19
2022-09-14T07:34:09.965Z,100663.75
2022-09-14T07:37:13.839Z,100659.63
2022-09-14T07:40:16.743Z,100702.31
2022-09-14T07:43:19.365Z,100702.31
2022-09-14T07:46:22.168Z,100684.66
2022-09-14T07:49:24.895Z,100672.59
2022-09-14T07:52:28.781Z,100666.16
2022-09-14T07:55:31.361Z,100678.69
2022-09-14T07:58:33.931Z,100683.50
2022-09-14T08:01:36.571Z,100681.53
2022-09-14T08:04:39.730Z,100683.97
2022-09-14T08:07:43.600Z,100656.59
2022-09-14T08:10:46.138Z,100659.03
2022-09-14T08:13:51.725Z,100646.16
2022-09-14T08:16:54.293Z,100679.13
2022-09-14T08:19:56.879Z,100676.72
2022-09-14T08:23:01.434Z,100680.34
2022-09-14T08:26:05.062Z,100607.94
2022-09-14T08:29:07.975Z,100620.41
2022-09-14T08:32:12.336Z,100680.38
2022-09-14T08:35:15.008Z,100679.19
2022-09-14T08:38:18.928Z,100610.03
2022-09-14T08:41:28.799Z,100676.84
2022-09-14T08:44:32.103Z,100603.63
2022-09-14T08:47:36.700Z,100676.09
2022-09-14T08:50:39.245Z,100670.09
2022-09-14T08:53:43.180Z,100667.28
2022-09-14T08:56:47.943Z,100656.78
2022-09-14T08:59:53.836Z,100601.25
2022-09-14T09:03:20.219Z,100689.00
2022-09-14T09:06:24.977Z,100681.41
2022-09-14T09:09:32.403Z,100681.81
2022-09-14T09:12:37.329Z,100681.00
2022-09-14T09:15:43.276Z,100677.38
2022-09-14T09:18:48.007Z,100687.03
2022-09-14T09:21:50.654Z,100678.59
2022-09-14T09:24:55.842Z,100674.59
2022-09-14T09:27:59.261Z,100639.19
2022-09-14T09:31:04.861Z,100658.13
2022-09-14T09:34:07.499Z,100671.41
2022-09-14T09:37:14.180Z,100662.56
2022-09-14T09:40:19.758Z,100662.53
2022-09-14T09:43:38.920Z,100656.88
2022-09-14T09:46:49.371Z,100653.72
2022-09-14T09:49:57.610Z,100655.31
2022-09-14T09:53:05.994Z,100618.28
2022-09-14T09:56:10.648Z,100658.94
2022-09-14T09:59:23.353Z,100654.97
2022-09-14T10:02:29.965Z,100656.97
2022-09-14T10:05:33.055Z,100656.19
2022-09-14T10:08:35.892Z,100604.72
2022-09-14T10:11:39.802Z,100661.78
2022-09-14T10:14:42.348Z,100663.41
2022-09-14T10:18:02.615Z,100636.09
2022-09-14T10:21:07.695Z,100642.53
2022-09-14T10:24:17.956Z,100624.88
2022-09-14T10:27:40.437Z,100631.31
2022-09-14T10:30:45.104Z,100615.25
2022-09-14T10:33:47.875Z,100653.41
2022-09-14T10:36:59.638Z,100652.22
2022-09-14T10:40:15.797Z,100656.22
2022-09-14T10:43:25.340Z,100637.34
2022-09-14T10:46:30.345Z,100654.63
2022-09-14T10:49:39.165Z,100616.88
2022-09-14T10:52:44.933Z,100650.22
2022-09-14T10:55:50.704Z,100647.44
2022-09-14T10:59:15.429Z,100651.44
2022-09-14T11:02:58.662Z,100648.19
2022-09-14T11:06:08.107Z,100653.03
2022-09-14T11:09:17.433Z,100602.38
2022-09-14T11:12:21.947Z,100646.47
2022-09-14T11:15:28.505Z,100648.06
2022-09-14T11:18:34.485Z,100644.03
2022-09-14T11:21:41.828Z,100607.13
2022-09-14T11:24:45.788Z,100636.00
2022-09-14T11:27:51.567Z,100595.06
2022-09-14T11:31:00.984Z,100649.22
2022-09-14T11:34:09.786Z,100650.03
2022-09-14T11:37:14.393Z,100657.66
2022-09-14T11:40:19.513Z,100653.63
2022-09-14T11:43:24.090Z,100655.22
2022-09-14T11:46:35.605Z,100631.09
2022-09-14T11:49:49.420Z,100606.00
2022-09-14T11:52:56.776Z,100619.75
2022-09-14T11:55:59.410Z,100621.69
2022-09-14T11:59:04.317Z,100613.59
2022-09-14T12:02:52.857Z,100641.63
2022-09-14T12:05:56.880Z,100582.19
2022-09-14T12:09:24.490Z,100629.31
2022-09-14T12:12:34.876Z,100641.56
2022-09-14T12:15:37.613Z,100597.19
2022-09-14T12:18:41.013Z,100632.97
2022-09-14T12:21:44.951Z,100623.16
2022-09-14T12:24:58.244Z,100618.19
2022-09-14T12:28:00.778Z,100600.25
2022-09-14T12:31:10.588Z,100568.59
2022-09-14T12:34:19.175Z,100621.28
2022-09-14T12:37:33.029Z,100617.06
2022-09-14T12:40:37.389Z,100531.06
2022-09-14T12:43:57.766Z,100617.69
2022-09-14T12:47:01.610Z,100609.03
2022-09-14T12:50:11.537Z,100611.69
2022-09-14T12:53:24.687Z,100618.47
2022-09-14T12:56:30.363Z,100559.69
2022-09-14T12:59:36.906Z,100564.88
2022-09-14T13:03:11.697Z,100608.19
2022-09-14T13:06:14.463Z,100581.53
2022-09-14T13:09:21.037Z,100604.09
2022-09-14T13:12:24.877Z,100603.66
2022-09-14T13:15:28.449Z,100603.47
2022-09-14T13:18:33.333Z,100585.16
2022-09-14T13:21:36.043Z,100596.09
2022-09-14T13:24:44.997Z,100567.41
2022-09-14T13:27:47.670Z,100595.56
2022-09-14T13:30:54.886Z,100566.56
2022-09-14T13:33:57.550Z,100526.09
2022-09-14T13:37:05.699Z,100558.66
2022-09-14T13:40:10.636Z,100568.84
2022-09-14T13:43:13.314Z,100592.75
2022-09-14T13:46:20.152Z,100574.13
2022-09-14T13:49:23.067Z,100557.44
2022-09-14T13:52:43.573Z,100584.13
2022-09-14T13:55:54.063Z,100588.59
2022-09-14T13:59:17.095Z,100561.34
2022-09-14T14:02:19.678Z,100513.38
2022-09-14T14:05:23.845Z,100508.44
2022-09-14T14:08:32.308Z,100568.31
2022-09-14T14:11:37.939Z,100564.56
2022-09-14T14:14:40.512Z,100561.16
2022-09-14T14:17:43.041Z,100557.00
2022-09-14T14:20:45.652Z,100564.78
2022-09-14T14:24:09.578Z,100562.75
2022-09-14T14:27:27.840Z,100553.22
2022-09-14T14:30:30.658Z,100494.97
2022-09-14T14:33:33.248Z,100536.78
2022-09-14T14:36:36.135Z,100540.03
2022-09-14T14:39:38.941Z,100503.69
2022-09-14T14:42:42.933Z,100543.34
2022-09-14T14:45:45.575Z,100538.81
2022-09-14T14:48:48.201Z,100525.84
2022-09-14T14:51:51.100Z,100487.69
2022-09-14T14:54:53.715Z,100528.63
2022-09-14T14:58:00.568Z,100480.03
2022-09-14T15:01:03.284Z,100526.66
2022-09-14T15:04:06.053Z,100512.22
2022-09-14T15:07:08.852Z,100527.66
2022-09-14T15:10:13.046Z,100505.88
2022-09-14T15:13:17.008Z,100525.19
2022-09-14T15:16:19.648Z,100501.53
2022-09-14T15:19:22.288Z,100441.53
2022-09-14T15:22:25.112Z,100527.53
2022-09-14T15:25:27.751Z,100519.69
2022-09-14T15:28:31.852Z,100525.38
2022-09-14T15:31:34.639Z,100458.94
2022-09-14T15:34:37.333Z,100513.50
2022-09-14T15:37:39.905Z,100518.09
2022-09-14T15:40:42.519Z,100515.78
2022-09-14T15:43:46.601Z,100516.13
2022-09-14T15:46:49.259Z,100504.75
2022-09-14T15:49:52.134Z,100515.13
2022-09-14T15:52:58.053Z,100534.53
2022-09-14T15:56:03.636Z,100526.47
2022-09-14T15:59:08.599Z,100531.53
2022-09-14T16:02:11.940Z,100516.53
2022-09-14T16:05:16.096Z,100526.63
2022-09-14T16:08:18.705Z,100541.53
2022-09-14T16:11:21.289Z,100520.00
2022-09-14T16:14:25.399Z,100483.41
2022-09-14T16:17:27.952Z,100541.78
2022-09-14T16:20:30.534Z,100549.09
2022-09-14T16:23:33.593Z,100535.63
2022-09-14T16:26:37.267Z,100538.97
2022-09-14T16:29:41.406Z,100551.75
2022-09-14T16:32:44.694Z,100561.47
2022-09-14T16:35:47.289Z,100549.16
2022-09-14T16:38:49.824Z,100560.91
2022-09-14T16:41:53.888Z,100503.41
2022-09-14T16:44:57.861Z,100529.88
2022-09-14T16:48:00.395Z,100565.09
2022-09-14T16:51:03.285Z,100559.59
2022-09-14T16:54:05.897Z,100551.25
2022-09-14T16:57:08.420Z,100564.34
2022-09-14T17:00:13.566Z,100570.13
2022-09-14T17:03:16.100Z,100580.19
2022-09-14T17:06:19.572Z,100579.81
2022-09-14T17:09:23.498Z,100563.63
2022-09-14T17:12:26.062Z,100573.72
2022-09-14T17:15:30.887Z,100579.38
2022-09-14T17:18:33.951Z,100524.66
2022-09-14T17:21:39.035Z,100535.03
2022-09-14T17:24:41.606Z,100597.22
2022-09-14T17:27:44.108Z,100590.44
2022-09-14T17:30:48.154Z,100582.94
2022-09-14T17:33:50.696Z,100597.00
2022-09-14T17:36:53.274Z,100599.44
2022-09-14T17:39:55.979Z,100584.59
2022-09-14T17:42:58.611Z,100600.72
2022-09-14T17:46:02.853Z,100600.78
2022-09-14T17:49:05.791Z,100598.34
2022-09-14T17:52:08.292Z,100596.38
2022-09-14T17:55:10.975Z,100536.03
2022-09-14T17:58:17.619Z,100605.31
2022-09-14T18:01:23.659Z,100572.59
2022-09-14T18:04:27.294Z,100609.13
2022-09-14T18:07:30.546Z,100532.97
2022-09-14T18:10:33.120Z,100615.63
2022-09-14T18:13:35.759Z,100546.31
2022-09-14T18:16:39.864Z,100599.69
2022-09-14T18:19:42.522Z,100621.81
2022-09-14T18:22:45.103Z,100550.09
2022-09-14T18:25:47.895Z,100627.13
2022-09-14T18:28:51.046Z,100611.97
2022-09-14T18:31:55.215Z,100627.63
2022-09-14T18:34:57.863Z,100634.50
2022-09-14T18:38:00.391Z,100589.63
2022-09-14T18:41:06.256Z,100643.00
2022-09-14T18:44:09.069Z,100615.81
2022-09-14T18:47:13.352Z,100642.69
2022-09-14T18:50:16.069Z,100643.56
2022-09-14T18:53:18.632Z,100647.97
2022-09-14T18:56:21.237Z,100593.94
2022-09-14T18:59:23.778Z,100646.00
2022-09-14T19:02:27.774Z,100632.38
2022-09-14T19:05:31.776Z,100647.66
2022-09-14T19:08:34.375Z,100642.06
2022-09-14T19:11:36.987Z,100650.13
2022-09-14T19:14:39.687Z,100644.09
2022-09-14T19:17:43.709Z,100653.38
2022-09-14T19:21:05.857Z,100658.25
2022-09-14T19:24:10.698Z,100663.97
2022-09-14T19:27:13.294Z,100589.31
2022-09-14T19:30:15.907Z,100652.78
2022-09-14T19:33:19.916Z,100676.06
2022-09-14T19:36:23.317Z,100652.00
2022-09-14T19:39:26.496Z,100654.81
2022-09-14T19:42:29.104Z,100663.28
2022-09-14T19:45:32.646Z,100673.75
2022-09-14T19:48:36.693Z,100619.16
2022-09-14T19:51:39.240Z,100669.78
2022-09-14T19:54:41.841Z,100656.53
2022-09-14T19:57:44.473Z,100667.38
2022-09-14T20:00:47.097Z,100608.75
2022-09-14T20:03:51.092Z,100673.06
2022-09-14T20:06:55.236Z,100615.25
2022-09-14T20:09:57.841Z,100664.63
2022-09-14T20:13:00.444Z,100675.09
2022-09-14T20:16:10.392Z,100680.31
2022-09-14T20:19:15.367Z,100657.03
2022-09-14T20:22:17.956Z,100644.19
2022-09-14T20:25:20.590Z,100668.28
2022-09-14T20:28:26.100Z,100683.16
2022-09-14T20:31:28.991Z,100671.94
2022-09-14T20:34:34.301Z,100687.59
2022-09-14T20:37:36.875Z,100614.84
2022-09-14T20:40:39.501Z,100689.22
2022-09-14T20:43:42.289Z,100644.19
2022-09-14T20:46:46.958Z,100687.63
2022-09-14T20:49:50.928Z,100657.84
2022-09-14T20:52:53.669Z,100682.41
2022-09-14T20:56:01.305Z,100682.00
2022-09-14T20:59:05.360Z,100667.88
2022-09-14T21:02:07.983Z,100685.97
2022-09-14T21:05:11.982Z,100675.09
2022-09-14T21:08:14.974Z,100681.91
2022-09-14T21:11:18.494Z,100638.44
2022-09-14T21:14:21.303Z,100686.66
2022-09-14T21:17:25.926Z,100705.56
2022-09-14T21:20:29.969Z,100702.75
2022-09-14T21:23:32.594Z,100637.59
2022-09-14T21:26:38.249Z,100702.78
2022-09-14T21:29:43.223Z,100666.22
2022-09-14T21:32:47.981Z,100628.81
2022-09-14T21:35:52.019Z,100669.03
2022-09-14T21:38:55.776Z,100674.25
2022-09-14T21:41:59.673Z,100686.72
2022-09-14T21:45:02.277Z,100620.81
2022-09-14T21:48:05.075Z,100661.41
2022-09-14T21:51:10.951Z,100714.91
2022-09-14T21:54:13.817Z,100680.31
2022-09-14T21:57:16.432Z,100663.03
2022-09-14T22:00:19.100Z,100662.63
2022-09-14T22:03:21.635Z,100714.16
2022-09-14T22:06:27.248Z,100710.94
2022-09-14T22:09:30.043Z,100681.19
2022-09-14T22:12:32.649Z,100712.16
2022-09-14T22:15:35.331Z,100724.59
2022-09-14T22:18:38.320Z,100715.75
2022-09-14T22:21:42.336Z,100718.19
2022-09-14T22:24:44.914Z,100689.63
2022-09-14T22:27:47.533Z,100722.19
2022-09-14T22:30:52.925Z,100725.41
2022-09-14T22:33:56.184Z,100676.34
2022-09-14T22:37:00.346Z,100715.34
2022-09-14T22:40:03.344Z,100733.44
2022-09-14T22:43:06.470Z,100690.03
2022-09-14T22:46:09.441Z,100633.34
2022-09-14T22:49:12.278Z,100723.81
2022-09-14T22:52:16.280Z,100716.56
2022-09-14T22:55:18.920Z,100730.22
2022-09-14T22:58:23.796Z,100700.03
2022-09-14T23:01:27.521Z,100661.06
2022-09-14T23:04:31.062Z,100722.19
2022-09-14T23:07:35.015Z,100653.00
2022-09-14T23:10:37.768Z,100659.41
2022-09-14T23:13:41.052Z,100734.97
2022-09-14T23:16:44.913Z,100732.16
2022-09-14T23:19:47.685Z,100686.72
2022-09-14T23:22:51.638Z,100740.97
2022-09-14T23:25:54.228Z,100745.81
2022-09-14T23:28:58.401Z,100707.59
2022-09-14T23:32:00.992Z,100674.59
2022-09-14T23:35:03.629Z,100739.78
2022-09-14T23:38:07.587Z,100718.81
2022-09-14T23:41:10.115Z,100690.69
2022-09-14T23:44:13.087Z,100714.75
2022-09-14T23:47:15.801Z,100734.09
2022-09-14T23:50:18.894Z,100739.69
2022-09-14T23:53:22.870Z,100743.72
2022-09-14T23:56:26.559Z,100662.41
2022-09-14T23:59:29.181Z,100727.59
